Estación de Tranapuente INIA

Ultimos registro cada 15 minutos 67
Estación Fecha / Hora Temperatura Humedad Lluvia Velocidad Dirección Radiación Presion
67 Tranapuente INIA 03-09-2026 16:30 10,6 59,1 0 1,2 254 227,6 1019
66 Tranapuente INIA 03-09-2026 16:15 10,7 62 0 2,5 276 237,2 1019
65 Tranapuente INIA 03-09-2026 16:00 10,7 56 0 2,2 259 314 1019
64 Tranapuente INIA 03-09-2026 15:45 10,6 56,6 0 1,6 265 209,3 1019
63 Tranapuente INIA 03-09-2026 15:30 10,8 59,5 0 2,4 284 314,1 1019
62 Tranapuente INIA 03-09-2026 15:15 10,9 58 0 2,3 267 260,3 1019
61 Tranapuente INIA 03-09-2026 15:00 11 62 0 2,6 258 289,3 1019
60 Tranapuente INIA 03-09-2026 14:45 11,4 59,3 0 2,1 267 400,6 1019
59 Tranapuente INIA 03-09-2026 14:30 11,4 58,3 0 2,4 250 419,8 1019
58 Tranapuente INIA 03-09-2026 14:15 11,2 59,4 0 1,9 260 298,8 1019
57 Tranapuente INIA 03-09-2026 14:00 11,4 63,7 0 1,8 232 431,2 1020
56 Tranapuente INIA 03-09-2026 13:45 11,3 63,2 0 1,2 248 278,7 1020
55 Tranapuente INIA 03-09-2026 13:30 11,2 62 0 1,5 242 652,6 1020
54 Tranapuente INIA 03-09-2026 13:15 10,4 66,9 0 0 266 369,6 1020
53 Tranapuente INIA 03-09-2026 13:00 10,2 68,4 0 0,7 289 236,2 1020
52 Tranapuente INIA 03-09-2026 12:45 10,2 72 0 1,2 269 258,5 1020
51 Tranapuente INIA 03-09-2026 12:30 10,8 72 0 1,5 253 321,9 1020
50 Tranapuente INIA 03-09-2026 12:15 11,5 68,2 0 1,1 248 651,2 1020
49 Tranapuente INIA 03-09-2026 12:00 11 56,3 0 1 263 675,1 1020
48 Tranapuente INIA 03-09-2026 11:45 10,8 59,8 0 1,4 228 628,9 1020
47 Tranapuente INIA 03-09-2026 11:30 10 66,3 0 0,8 214 446,1 1020
46 Tranapuente INIA 03-09-2026 11:15 10 69 0 1,5 220 175,1 1020
45 Tranapuente INIA 03-09-2026 11:00 10,3 66,9 0 2,8 223 437,6 1020
44 Tranapuente INIA 03-09-2026 10:45 10,7 68,8 0 1,4 235 177,7 1020
43 Tranapuente INIA 03-09-2026 10:30 11,5 62,2 0 0,6 196 427,1 1020
42 Tranapuente INIA 03-09-2026 10:15 11,8 59,2 0 0 0 505,6 1020
41 Tranapuente INIA 03-09-2026 10:00 10,5 55,3 0 0 0 404,5 1019
40 Tranapuente INIA 03-09-2026 09:45 9,9 59,7 0 0 0 172,3 1019
39 Tranapuente INIA 03-09-2026 09:30 9,7 62,5 0 0 277 163,1 1019
38 Tranapuente INIA 03-09-2026 09:15 9,3 68,6 0 0,1 238 123,1 1019
37 Tranapuente INIA 03-09-2026 09:00 9 65,2 0 0,2 63 91,6 1019
36 Tranapuente INIA 03-09-2026 08:45 8,8 68,6 0 0 0 68,8 1019
35 Tranapuente INIA 03-09-2026 08:30 8,3 74,2 0 0 178 47,8 1019
34 Tranapuente INIA 03-09-2026 08:15 8,1 91,1 0 0 0 31,9 1018
33 Tranapuente INIA 03-09-2026 08:00 8 94,3 0 0 32 20,9 1018
32 Tranapuente INIA 03-09-2026 07:45 7,9 95,2 0 0 0 10,5 1018
31 Tranapuente INIA 03-09-2026 07:30 7,9 95,7 0 0 0 4 1018
30 Tranapuente INIA 03-09-2026 07:15 7,9 95,7 0 0 7 1,1 1018
29 Tranapuente INIA 03-09-2026 07:00 7,8 96,1 0 0 0 0,4 1018
28 Tranapuente INIA 03-09-2026 06:45 7,8 96,1 0 0 0 0,3 1017
27 Tranapuente INIA 03-09-2026 06:30 8 95,1 0 0 0 0,2 1017
26 Tranapuente INIA 03-09-2026 06:15 8,2 93,6 0 0 0 0,2 1017
25 Tranapuente INIA 03-09-2026 06:00 8,6 90,6 0 0 0 0,2 1017
24 Tranapuente INIA 03-09-2026 05:45 8,6 83,7 0 0,3 228 0,2 1017
23 Tranapuente INIA 03-09-2026 05:30 8,2 92,8 0 0,1 238 0,2 1017
22 Tranapuente INIA 03-09-2026 05:15 8,4 95,1 0 0 0 0,2 1016
21 Tranapuente INIA 03-09-2026 05:00 8,6 94,9 0 0 0 0,2 1016
20 Tranapuente INIA 03-09-2026 04:45 8,7 93,7 0 0 0 0,2 1016
19 Tranapuente INIA 03-09-2026 04:30 8,9 94,3 0 0 0 0,2 1016
18 Tranapuente INIA 03-09-2026 04:15 8,9 93,6 0 0 0 0,2 1016
17 Tranapuente INIA 03-09-2026 04:00 8,9 94,7 0 0,3 237 0,2 1016
16 Tranapuente INIA 03-09-2026 03:45 8,8 96 0,2 0 305 0,2 1016
15 Tranapuente INIA 03-09-2026 03:30 9 97,3 0 0 0 0,2 1016
14 Tranapuente INIA 03-09-2026 03:15 9 97,4 0 0 0 0,2 1016
13 Tranapuente INIA 03-09-2026 03:00 9 97,4 0,1 0 0 0,2 1016
12 Tranapuente INIA 03-09-2026 02:45 9 96,9 0,2 0 0 0,2 1016
11 Tranapuente INIA 03-09-2026 02:30 9,1 95,9 0,1 0 0 0,2 1015
10 Tranapuente INIA 03-09-2026 02:15 9,2 95,1 0,6 0 0 0,2 1015
9 Tranapuente INIA 03-09-2026 02:00 9,3 93,7 0 0,1 288 0,2 1015
8 Tranapuente INIA 03-09-2026 01:45 9,3 93,2 0 0 0 0,2 1015
7 Tranapuente INIA 03-09-2026 01:30 9,5 92,3 0,2 0 0 0,2 1015
6 Tranapuente INIA 03-09-2026 01:15 9,4 92,1 0 0 0 0,2 1015
5 Tranapuente INIA 03-09-2026 01:00 9,3 93,8 0 0 0 0,2 1015
4 Tranapuente INIA 03-09-2026 00:45 9,4 92,4 0 0 0 0,2 1014
3 Tranapuente INIA 03-09-2026 00:30 9,5 92 0 0 0 0,2 1014
2 Tranapuente INIA 03-09-2026 00:15 9,7 92,9 0 0,2 297 0,2 1014
1 Tranapuente INIA 03-09-2026 00:00 9,4 93,7 0 0,4 335 0,2 1014